createdAt,value
2023-05-07T00:07:39.267Z,15.36
2023-05-07T00:17:39.357Z,15.31
2023-05-07T00:27:39.537Z,15.43
2023-05-07T00:37:39.688Z,15.14
2023-05-07T00:47:39.879Z,14.98
2023-05-07T00:57:40.012Z,14.91
2023-05-07T01:07:40.188Z,14.96
2023-05-07T01:17:40.348Z,14.91
2023-05-07T01:27:40.517Z,14.88
2023-05-07T01:37:40.757Z,14.89
2023-05-07T01:47:40.963Z,14.80
2023-05-07T01:57:41.111Z,14.65
2023-05-07T02:07:41.272Z,14.55
2023-05-07T02:17:41.461Z,14.52
2023-05-07T02:27:41.607Z,14.45
2023-05-07T02:37:41.770Z,14.54
2023-05-07T02:47:42.010Z,14.24
2023-05-07T02:57:42.149Z,14.29
2023-05-07T03:07:42.332Z,14.12
2023-05-07T03:17:42.608Z,13.96
2023-05-07T03:27:42.773Z,13.95
2023-05-07T03:37:42.918Z,14.06
2023-05-07T03:47:43.115Z,14.00
2023-05-07T03:57:43.230Z,14.00
2023-05-07T04:07:43.404Z,13.96
2023-05-07T04:17:43.588Z,14.09
2023-05-07T04:27:43.735Z,13.87
2023-05-07T04:37:43.874Z,13.82
2023-05-07T04:47:44.061Z,13.91
2023-05-07T04:57:44.183Z,14.02
2023-05-07T05:07:44.339Z,14.02
2023-05-07T05:17:44.534Z,14.09
2023-05-07T05:27:44.689Z,14.25
2023-05-07T05:37:44.854Z,14.50
2023-05-07T05:47:45.057Z,15.64
2023-05-07T05:57:45.229Z,15.36
2023-05-07T06:07:45.395Z,15.71
2023-05-07T06:17:45.600Z,15.90
2023-05-07T06:27:45.741Z,16.79
2023-05-07T06:37:45.894Z,16.49
2023-05-07T06:47:46.102Z,16.48
2023-05-07T06:57:46.234Z,16.46
2023-05-07T07:07:46.403Z,16.60
2023-05-07T07:17:46.581Z,16.73
2023-05-07T07:27:46.727Z,16.94
2023-05-07T07:37:46.865Z,17.00
2023-05-07T07:47:47.096Z,17.21
2023-05-07T07:57:47.273Z,17.23
2023-05-07T08:07:47.420Z,17.54
2023-05-07T08:17:47.716Z,17.62
2023-05-07T08:27:47.663Z,17.97
2023-05-07T08:37:47.826Z,18.65
2023-05-07T08:47:48.085Z,18.48
2023-05-07T08:57:48.284Z,18.92
2023-05-07T09:07:48.467Z,19.48
2023-05-07T09:17:48.683Z,19.55
2023-05-07T09:27:48.822Z,19.74
2023-05-07T09:37:48.983Z,19.80
2023-05-07T09:47:49.233Z,20.74
2023-05-07T09:57:49.352Z,21.10
2023-05-07T10:07:49.531Z,21.10
2023-05-07T10:17:49.827Z,21.50
2023-05-07T10:27:49.801Z,21.67
2023-05-07T10:37:49.957Z,21.29
2023-05-07T10:47:50.291Z,21.19
2023-05-07T10:57:50.214Z,21.04
2023-05-07T11:07:50.385Z,20.84
2023-05-07T11:17:50.594Z,20.99
2023-05-07T11:27:50.730Z,21.82
2023-05-07T11:37:50.930Z,22.06
2023-05-07T11:47:51.128Z,22.76
2023-05-07T11:57:51.294Z,23.78
2023-05-07T12:07:51.466Z,24.81
2023-05-07T12:17:51.819Z,24.78
2023-05-07T12:27:51.775Z,25.47
2023-05-07T12:37:51.938Z,25.25
2023-05-07T12:47:52.104Z,25.46
2023-05-07T12:57:52.247Z,25.65
2023-05-07T13:07:52.426Z,26.25
2023-05-07T13:17:52.656Z,26.37
2023-05-07T13:28:02.745Z,26.23
2023-05-07T13:37:54.023Z,26.69
2023-05-07T13:47:53.212Z,26.51
2023-05-07T13:57:54.681Z,25.92
2023-05-07T14:07:53.473Z,25.83
2023-05-07T14:17:53.701Z,25.75
2023-05-07T14:27:53.924Z,26.44
2023-05-07T14:37:54.107Z,25.69
2023-05-07T14:47:54.297Z,23.70
2023-05-07T14:57:54.476Z,23.10
2023-05-07T15:07:57.520Z,22.43
2023-05-07T15:17:54.897Z,22.24
2023-05-07T15:27:55.167Z,21.90
2023-05-07T15:37:55.444Z,21.65
2023-05-07T15:47:55.736Z,21.47
2023-05-07T15:57:55.695Z,21.07
2023-05-07T16:07:55.928Z,20.61
2023-05-07T16:17:56.177Z,20.08
2023-05-07T16:27:56.518Z,19.28
2023-05-07T16:37:56.519Z,18.75
2023-05-07T16:47:56.833Z,18.14
2023-05-07T16:57:56.863Z,18.07
2023-05-07T17:07:57.115Z,16.76
2023-05-07T17:17:57.390Z,15.83
2023-05-07T17:27:57.386Z,16.39
2023-05-07T17:37:57.640Z,16.04
2023-05-07T17:47:57.690Z,15.69
2023-05-07T17:57:57.963Z,15.65
2023-05-07T18:07:58.002Z,15.71
2023-05-07T18:17:58.249Z,15.50
2023-05-07T18:27:58.520Z,15.59
2023-05-07T18:37:58.594Z,15.36
2023-05-07T18:47:58.927Z,15.17
2023-05-07T18:57:58.904Z,15.27
2023-05-07T19:07:59.164Z,14.89
2023-05-07T19:17:59.494Z,14.75
2023-05-07T19:27:59.452Z,15.01
2023-05-07T19:37:59.666Z,15.10
2023-05-07T19:47:59.965Z,15.27
2023-05-07T19:58:00.257Z,15.23
2023-05-07T20:08:00.317Z,15.17
2023-05-07T20:18:00.614Z,15.09
2023-05-07T20:28:00.456Z,15.03
2023-05-07T20:38:00.684Z,15.06
2023-05-07T20:48:00.912Z,14.99
2023-05-07T20:58:00.868Z,14.96
2023-05-07T21:08:00.862Z,14.95
2023-05-07T21:18:01.064Z,14.92
2023-05-07T21:28:01.214Z,14.88
2023-05-07T21:38:01.400Z,14.86
2023-05-07T21:48:01.616Z,14.81
2023-05-07T21:58:05.855Z,14.88
2023-05-07T22:08:02.054Z,14.65
2023-05-07T22:18:02.290Z,14.51
2023-05-07T22:28:02.425Z,14.39
2023-05-07T22:38:02.629Z,14.36
2023-05-07T22:48:02.933Z,14.33
2023-05-07T22:58:02.950Z,14.39
2023-05-07T23:08:03.107Z,14.40
2023-05-07T23:18:03.348Z,14.45
2023-05-07T23:28:03.520Z,14.21
2023-05-07T23:38:03.687Z,14.40
2023-05-07T23:48:03.869Z,14.25
2023-05-07T23:58:04.017Z,14.06
